createdAt,value
2019-02-16T00:00:21.509Z,4.87
2019-02-16T00:02:54.453Z,4.86
2019-02-16T00:05:25.539Z,4.67
2019-02-16T00:07:56.697Z,4.46
2019-02-16T00:10:27.449Z,4.31
2019-02-16T00:12:58.450Z,4.18
2019-02-16T00:15:29.434Z,4.17
2019-02-16T00:18:00.217Z,4.22
2019-02-16T00:20:30.986Z,4.00
2019-02-16T00:23:02.101Z,3.98
2019-02-16T00:25:33.029Z,3.85
2019-02-16T00:28:03.870Z,3.62
2019-02-16T00:30:34.636Z,3.50
2019-02-16T00:33:05.747Z,3.34
2019-02-16T00:35:37.020Z,3.22
2019-02-16T00:38:08.071Z,3.21
2019-02-16T00:40:39.150Z,3.19
2019-02-16T00:43:10.273Z,3.12
2019-02-16T00:45:41.078Z,3.09
2019-02-16T00:48:11.854Z,2.98
2019-02-16T00:50:42.913Z,2.89
2019-02-16T00:53:13.919Z,2.81
2019-02-16T00:55:44.684Z,2.72
2019-02-16T00:58:15.974Z,2.76
2019-02-16T01:00:46.743Z,2.89
2019-02-16T01:03:17.919Z,2.82
2019-02-16T01:05:49.077Z,2.53
2019-02-16T01:08:19.865Z,2.34
2019-02-16T01:10:50.801Z,2.25
2019-02-16T01:13:21.850Z,2.25
2019-02-16T01:15:52.840Z,2.12
2019-02-16T01:18:23.867Z,2.01
2019-02-16T01:20:54.664Z,1.97
2019-02-16T01:23:25.444Z,1.92
2019-02-16T01:25:56.686Z,2.01
2019-02-16T01:28:27.465Z,2.10
2019-02-16T01:30:58.247Z,2.13
2019-02-16T01:33:30.020Z,2.11
2019-02-16T01:36:01.017Z,1.96
2019-02-16T01:38:31.887Z,1.91
2019-02-16T01:41:02.654Z,1.99
2019-02-16T01:43:33.686Z,1.98
2019-02-16T01:46:04.782Z,1.96
2019-02-16T01:48:35.622Z,1.97
2019-02-16T01:51:06.973Z,2.05
2019-02-16T01:53:37.844Z,2.12
2019-02-16T01:56:09.109Z,2.04
2019-02-16T01:58:40.882Z,1.92
2019-02-16T02:01:11.923Z,1.87
2019-02-16T02:03:42.981Z,1.82
2019-02-16T02:06:14.056Z,1.92
2019-02-16T02:08:45.344Z,1.82
2019-02-16T02:11:16.256Z,1.93
2019-02-16T02:13:47.068Z,1.82
2019-02-16T02:16:18.087Z,1.77
2019-02-16T02:18:48.903Z,1.82
2019-02-16T02:21:20.659Z,1.82
2019-02-16T02:23:51.517Z,1.83
2019-02-16T02:26:22.599Z,1.88
2019-02-16T02:28:53.374Z,1.85
2019-02-16T02:31:24.172Z,1.84
2019-02-16T02:33:55.007Z,1.76
2019-02-16T02:36:26.393Z,1.65
2019-02-16T02:38:58.699Z,1.61
2019-02-16T02:41:29.493Z,1.60
2019-02-16T02:44:00.684Z,1.52
2019-02-16T02:46:31.712Z,1.44
2019-02-16T02:49:02.979Z,1.37
2019-02-16T02:51:34.016Z,1.32
2019-02-16T02:54:04.882Z,1.27
2019-02-16T02:56:35.928Z,1.25
2019-02-16T02:59:07.104Z,1.36
2019-02-16T03:01:38.356Z,1.39
2019-02-16T03:04:09.375Z,1.46
2019-02-16T03:06:40.484Z,1.75
2019-02-16T03:09:11.837Z,1.74
2019-02-16T03:11:42.879Z,1.71
2019-02-16T03:14:14.852Z,1.66
2019-02-16T03:16:45.931Z,1.59
2019-02-16T03:19:16.718Z,1.47
2019-02-16T03:21:48.101Z,1.41
2019-02-16T03:24:18.881Z,1.42
2019-02-16T03:27:01.261Z,1.42
2019-02-16T03:29:36.485Z,1.33
2019-02-16T03:32:46.455Z,1.34
2019-02-16T03:35:39.023Z,1.34
2019-02-16T03:38:46.024Z,1.52
2019-02-16T03:41:17.162Z,1.47
2019-02-16T03:43:48.472Z,1.73
2019-02-16T03:46:19.552Z,1.70
2019-02-16T03:48:51.104Z,1.75
2019-02-16T03:51:22.717Z,1.78
2019-02-16T03:53:53.758Z,1.60
2019-02-16T03:56:24.763Z,1.53
2019-02-16T03:58:56.351Z,1.41
2019-02-16T04:01:27.426Z,1.33
2019-02-16T04:03:58.224Z,1.29
2019-02-16T04:06:29.254Z,1.37
2019-02-16T04:09:00.043Z,1.51
2019-02-16T04:11:31.185Z,1.46
2019-02-16T04:14:02.217Z,1.40
2019-02-16T04:16:33.250Z,1.26
2019-02-16T04:19:04.059Z,1.19
2019-02-16T04:21:34.922Z,1.25
2019-02-16T04:24:06.182Z,1.19
2019-02-16T04:26:37.221Z,1.10
2019-02-16T04:29:08.380Z,0.94
2019-02-16T04:31:39.933Z,0.73
2019-02-16T04:34:10.811Z,0.54
2019-02-16T04:36:41.597Z,0.49
2019-02-16T04:39:13.209Z,0.44
2019-02-16T04:41:44.021Z,0.46
2019-02-16T04:44:15.021Z,0.51
2019-02-16T04:46:46.673Z,0.49
2019-02-16T04:49:17.976Z,0.49
2019-02-16T04:51:49.084Z,0.43
2019-02-16T04:54:20.318Z,0.53
2019-02-16T04:56:51.864Z,0.46
2019-02-16T04:59:23.253Z,0.39
2019-02-16T05:01:54.297Z,0.36
2019-02-16T05:04:25.079Z,0.38
2019-02-16T05:06:56.142Z,0.40
2019-02-16T05:09:27.414Z,0.40
2019-02-16T05:11:58.785Z,0.45
2019-02-16T05:14:30.101Z,0.38
2019-02-16T05:17:01.173Z,0.49
2019-02-16T05:19:31.966Z,0.38
2019-02-16T05:22:03.259Z,0.32
2019-02-16T05:24:34.267Z,0.53
2019-02-16T05:27:05.373Z,0.51
2019-02-16T05:29:36.400Z,0.46
2019-02-16T05:32:07.356Z,0.46
2019-02-16T05:34:38.151Z,0.54
2019-02-16T05:37:09.181Z,0.45
2019-02-16T05:39:40.473Z,0.46
2019-02-16T05:42:11.288Z,0.47
2019-02-16T05:44:42.066Z,0.65
2019-02-16T05:47:13.113Z,0.73
2019-02-16T05:49:44.424Z,0.93
2019-02-16T05:52:15.444Z,1.16
2019-02-16T05:54:46.519Z,1.04
2019-02-16T05:57:17.621Z,0.94
2019-02-16T05:59:48.933Z,0.96
2019-02-16T06:02:19.735Z,0.96
2019-02-16T06:04:50.570Z,0.92
2019-02-16T06:07:21.685Z,0.97
2019-02-16T06:09:52.475Z,0.89
2019-02-16T06:12:23.278Z,0.82
2019-02-16T06:14:54.292Z,0.84
2019-02-16T06:17:25.412Z,0.81
2019-02-16T06:19:56.431Z,0.76
2019-02-16T06:22:27.456Z,0.82
2019-02-16T06:24:58.713Z,0.74
2019-02-16T06:27:29.830Z,0.78
2019-02-16T06:30:00.620Z,0.86
2019-02-16T06:32:31.989Z,0.86
2019-02-16T06:35:21.787Z,0.84
2019-02-16T06:37:52.861Z,0.66
2019-02-16T06:40:24.869Z,0.59
2019-02-16T06:42:55.952Z,0.62
2019-02-16T06:45:27.216Z,0.72
2019-02-16T06:47:58.500Z,0.64
2019-02-16T06:50:36.745Z,0.55
2019-02-16T06:53:12.592Z,0.47
2019-02-16T06:55:50.278Z,0.41
2019-02-16T06:58:21.545Z,0.43
2019-02-16T07:00:52.573Z,0.60
2019-02-16T07:03:23.479Z,0.62
2019-02-16T07:05:54.305Z,0.63
2019-02-16T07:08:25.182Z,0.73
2019-02-16T07:10:56.035Z,0.81
2019-02-16T07:13:27.125Z,0.80
2019-02-16T07:16:29.356Z,0.69
2019-02-16T07:19:04.564Z,0.68
2019-02-16T07:21:35.486Z,0.84
2019-02-16T07:24:06.346Z,0.97
2019-02-16T07:26:37.373Z,1.08
2019-02-16T07:29:08.396Z,1.18
2019-02-16T07:31:39.468Z,1.11
2019-02-16T07:34:10.287Z,1.04
2019-02-16T07:36:41.448Z,1.15
2019-02-16T07:39:12.352Z,1.25
2019-02-16T07:41:43.467Z,1.34
2019-02-16T07:44:36.857Z,1.48
2019-02-16T07:47:25.408Z,1.54
2019-02-16T07:50:02.201Z,1.66
2019-02-16T07:52:49.044Z,1.71
2019-02-16T07:55:44.925Z,1.82
2019-02-16T07:58:32.853Z,1.92
2019-02-16T08:01:21.376Z,2.13
2019-02-16T08:04:15.676Z,2.36
2019-02-16T08:07:07.807Z,2.48
2019-02-16T08:09:43.762Z,2.76
2019-02-16T08:12:33.184Z,2.90
2019-02-16T08:15:23.423Z,3.05
2019-02-16T08:18:08.429Z,3.13
2019-02-16T08:20:53.681Z,3.33
2019-02-16T08:23:40.149Z,3.41
2019-02-16T08:26:32.278Z,3.54
2019-02-16T08:29:17.955Z,3.95
2019-02-16T08:31:57.845Z,4.21
2019-02-16T08:34:35.746Z,4.36
2019-02-16T08:37:20.655Z,4.45
2019-02-16T08:40:08.726Z,4.64
2019-02-16T08:42:57.023Z,4.80
2019-02-16T08:45:50.129Z,5.07
2019-02-16T08:48:40.176Z,5.14
2019-02-16T08:51:16.929Z,5.11
2019-02-16T08:54:05.429Z,5.54
2019-02-16T08:57:01.215Z,5.41
2019-02-16T08:59:49.536Z,5.75
2019-02-16T09:02:25.262Z,5.51
2019-02-16T09:05:08.072Z,5.27
2019-02-16T09:08:03.633Z,5.29
2019-02-16T09:10:54.790Z,5.31
2019-02-16T09:13:50.617Z,5.31
2019-02-16T09:16:44.228Z,5.34
2019-02-16T09:19:24.981Z,5.52
2019-02-16T09:22:17.827Z,5.53
2019-02-16T09:27:56.611Z,5.85
2019-02-16T09:30:55.677Z,6.24
2019-02-16T09:33:36.902Z,6.22
2019-02-16T09:36:33.074Z,6.31
2019-02-16T09:39:13.427Z,6.63
2019-02-16T09:42:06.929Z,6.82
2019-02-16T09:44:46.902Z,7.18
2019-02-16T09:47:35.087Z,7.41
2019-02-16T09:50:20.981Z,7.65
2019-02-16T09:53:09.891Z,7.72
2019-02-16T09:56:05.804Z,7.67
2019-02-16T09:58:56.080Z,7.68
2019-02-16T10:01:41.406Z,7.89
2019-02-16T10:04:27.890Z,7.89
2019-02-16T10:07:16.146Z,8.07
2019-02-16T10:10:12.084Z,8.16
2019-02-16T10:13:11.262Z,8.30
2019-02-16T10:16:03.938Z,8.62
2019-02-16T10:19:05.924Z,8.73
2019-02-16T10:21:47.282Z,8.71
2019-02-16T10:24:30.637Z,8.63
2019-02-16T10:27:20.719Z,8.72
2019-02-16T10:30:13.834Z,8.87
2019-02-16T10:33:02.824Z,8.96
2019-02-16T10:35:55.745Z,9.29
2019-02-16T10:38:45.881Z,9.45
2019-02-16T10:41:23.537Z,9.44
2019-02-16T10:44:07.882Z,9.62
2019-02-16T10:46:47.176Z,9.83
2019-02-16T10:49:32.611Z,10.01
2019-02-16T10:52:22.682Z,9.94
2019-02-16T10:55:24.489Z,10.06
2019-02-16T10:58:06.766Z,10.09
2019-02-16T11:00:49.975Z,10.33
2019-02-16T11:03:33.670Z,10.60
2019-02-16T11:06:12.003Z,10.73
2019-02-16T11:08:50.323Z,10.69
2019-02-16T11:11:45.562Z,10.68
2019-02-16T11:14:24.682Z,10.85
2019-02-16T11:17:20.681Z,10.87
2019-02-16T11:20:10.486Z,10.85
2019-02-16T11:23:03.465Z,11.04
2019-02-16T11:25:48.594Z,11.07
2019-02-16T11:28:31.895Z,11.27
2019-02-16T11:31:13.530Z,11.65
2019-02-16T11:33:58.970Z,11.60
2019-02-16T11:36:52.838Z,11.64
2019-02-16T11:39:33.627Z,11.68
2019-02-16T11:42:12.367Z,11.48
2019-02-16T11:44:58.809Z,11.55
2019-02-16T11:48:03.554Z,11.56
2019-02-16T11:50:49.304Z,11.72
2019-02-16T11:53:39.108Z,11.79
2019-02-16T11:56:25.878Z,11.81
2019-02-16T11:59:06.416Z,11.86
2019-02-16T12:01:55.832Z,12.10
2019-02-16T12:04:41.077Z,12.06
2019-02-16T12:07:27.251Z,11.94
2019-02-16T12:10:22.819Z,11.91
2019-02-16T12:13:09.851Z,12.07
2019-02-16T12:16:02.736Z,12.16
2019-02-16T12:18:51.017Z,12.23
2019-02-16T12:21:39.447Z,12.25
2019-02-16T12:24:17.325Z,12.48
2019-02-16T12:26:58.895Z,12.50
2019-02-16T12:29:39.640Z,12.58
2019-02-16T12:32:28.167Z,12.55
2019-02-16T12:35:11.289Z,12.56
2019-02-16T12:37:47.689Z,12.65
2019-02-16T12:40:55.850Z,12.74
2019-02-16T12:43:36.798Z,12.97
2019-02-16T12:46:23.540Z,12.98
2019-02-16T12:49:01.682Z,12.97
2019-02-16T12:51:46.733Z,12.90
2019-02-16T12:54:36.769Z,12.90
2019-02-16T12:57:32.690Z,12.98
2019-02-16T13:00:13.156Z,13.29
2019-02-16T13:03:12.202Z,13.26
2019-02-16T13:06:00.789Z,13.35
2019-02-16T13:08:42.847Z,13.26
2019-02-16T13:11:20.856Z,13.30
2019-02-16T13:14:08.532Z,13.18
2019-02-16T13:17:04.628Z,13.18
2019-02-16T13:19:52.181Z,13.29
2019-02-16T13:22:37.607Z,13.40
2019-02-16T13:25:24.524Z,13.60
2019-02-16T13:28:10.655Z,13.77
2019-02-16T13:30:58.655Z,13.78
2019-02-16T13:33:47.217Z,13.84
2019-02-16T13:36:35.491Z,13.94
2019-02-16T13:39:35.376Z,13.88
2019-02-16T13:42:40.420Z,13.99
2019-02-16T13:45:20.766Z,14.09
2019-02-16T13:47:56.416Z,14.06
2019-02-16T13:51:04.869Z,14.16
2019-02-16T13:53:54.721Z,14.04
2019-02-16T13:56:35.471Z,13.93
2019-02-16T13:59:19.248Z,13.91
2019-02-16T14:02:08.250Z,14.04
2019-02-16T14:04:49.432Z,14.18
2019-02-16T14:07:33.504Z,14.25
2019-02-16T14:10:16.998Z,14.15
2019-02-16T14:13:14.070Z,14.20
2019-02-16T14:16:04.097Z,14.17
2019-02-16T14:18:34.909Z,14.20
2019-02-16T14:21:05.718Z,14.24
2019-02-16T14:23:36.754Z,14.14
2019-02-16T14:26:07.630Z,14.57
2019-02-16T14:28:38.688Z,14.47
2019-02-16T14:31:09.581Z,14.31
2019-02-16T14:33:40.392Z,14.40
2019-02-16T14:36:11.345Z,14.27
2019-02-16T14:38:50.545Z,14.30
2019-02-16T14:41:21.838Z,14.33
2019-02-16T14:43:52.894Z,14.23
2019-02-16T14:46:23.686Z,14.16
2019-02-16T14:48:54.727Z,14.22
2019-02-16T14:51:25.521Z,14.21
2019-02-16T14:53:56.705Z,14.36
2019-02-16T14:56:27.812Z,14.16
2019-02-16T14:58:59.777Z,14.12
2019-02-16T15:01:30.870Z,14.03
2019-02-16T15:04:01.692Z,13.95
2019-02-16T15:06:32.706Z,14.01
2019-02-16T15:09:04.447Z,13.93
2019-02-16T15:11:35.677Z,13.95
2019-02-16T15:14:06.821Z,13.95
2019-02-16T15:16:37.863Z,13.85
2019-02-16T15:19:08.728Z,14.11
2019-02-16T15:21:39.613Z,14.23
2019-02-16T15:24:10.434Z,14.07
2019-02-16T15:26:41.302Z,13.86
2019-02-16T15:29:12.110Z,13.95
2019-02-16T15:31:42.899Z,13.91
2019-02-16T15:34:14.005Z,13.96
2019-02-16T15:36:44.811Z,13.99
2019-02-16T15:39:15.625Z,13.84
2019-02-16T15:41:46.430Z,13.62
2019-02-16T15:44:17.479Z,13.73
2019-02-16T15:46:48.577Z,13.74
2019-02-16T15:49:19.379Z,13.25
2019-02-16T15:51:50.501Z,13.07
2019-02-16T15:54:21.315Z,12.44
2019-02-16T15:56:53.074Z,12.44
2019-02-16T15:59:23.907Z,12.30
2019-02-16T16:01:55.035Z,12.10
2019-02-16T16:04:25.847Z,11.71
2019-02-16T16:06:56.876Z,11.71
2019-02-16T16:09:39.530Z,11.62
2019-02-16T16:12:25.698Z,11.40
2019-02-16T16:15:02.590Z,11.28
2019-02-16T16:17:55.444Z,11.16
2019-02-16T16:20:38.591Z,10.96
2019-02-16T16:23:26.831Z,10.81
2019-02-16T16:26:26.002Z,10.73
2019-02-16T16:29:18.950Z,10.54
2019-02-16T16:32:11.385Z,10.32
2019-02-16T16:34:59.217Z,10.26
2019-02-16T16:37:45.470Z,10.08
2019-02-16T16:40:53.280Z,9.85
2019-02-16T16:43:58.366Z,9.63
2019-02-16T16:46:46.792Z,9.50
2019-02-16T16:49:39.885Z,9.21
2019-02-16T16:52:28.731Z,9.07
2019-02-16T16:55:29.201Z,8.83
2019-02-16T16:58:17.757Z,8.57
2019-02-16T17:01:06.270Z,8.36
2019-02-16T17:03:56.465Z,8.17
2019-02-16T17:06:33.812Z,8.09
2019-02-16T17:09:34.520Z,8.09
2019-02-16T17:12:23.553Z,8.05
2019-02-16T17:15:08.530Z,7.82
2019-02-16T17:17:54.275Z,7.66
2019-02-16T17:20:44.575Z,7.51
2019-02-16T17:23:25.807Z,7.38
2019-02-16T17:26:15.832Z,7.29
2019-02-16T17:29:05.935Z,7.15
2019-02-16T17:32:03.557Z,7.11
2019-02-16T17:34:44.621Z,6.98
2019-02-16T17:37:34.709Z,6.99
2019-02-16T17:40:27.764Z,7.00
2019-02-16T17:43:07.987Z,6.87
2019-02-16T17:46:07.225Z,6.78
2019-02-16T17:48:55.375Z,6.61
2019-02-16T17:51:48.212Z,6.45
2019-02-16T17:54:47.284Z,6.29
2019-02-16T17:57:34.369Z,6.25
2019-02-16T18:00:22.570Z,6.16
2019-02-16T18:03:11.067Z,6.03
2019-02-16T18:06:01.241Z,5.95
2019-02-16T18:08:56.929Z,5.88
2019-02-16T18:11:58.882Z,5.82
2019-02-16T18:14:47.292Z,5.84
2019-02-16T18:17:41.040Z,5.88
2019-02-16T18:20:21.010Z,5.83
2019-02-16T18:23:00.454Z,5.76
2019-02-16T18:25:37.750Z,5.76
2019-02-16T18:28:23.765Z,5.91
2019-02-16T18:31:22.090Z,5.86
2019-02-16T18:34:10.645Z,5.73
2019-02-16T18:37:03.461Z,5.70
2019-02-16T18:39:50.392Z,5.88
2019-02-16T18:42:29.772Z,5.85
2019-02-16T18:45:11.513Z,5.85
2019-02-16T18:47:54.266Z,5.90
2019-02-16T18:50:50.130Z,5.94
2019-02-16T18:53:45.941Z,5.91
2019-02-16T18:56:35.092Z,5.84
2019-02-16T18:59:23.425Z,5.82
2019-02-16T19:02:16.103Z,5.76
2019-02-16T19:04:56.920Z,5.72
2019-02-16T19:07:35.150Z,5.71
2019-02-16T19:10:14.422Z,5.62
2019-02-16T19:12:57.588Z,5.61
2019-02-16T19:15:56.760Z,5.64
2019-02-16T19:18:55.642Z,5.55
2019-02-16T19:21:43.513Z,5.56
2019-02-16T19:24:36.369Z,5.54
2019-02-16T19:27:29.458Z,5.57
2019-02-16T19:30:31.447Z,5.55
2019-02-16T19:33:18.667Z,5.44
2019-02-16T19:36:08.468Z,5.27
2019-02-16T19:38:51.199Z,5.22
2019-02-16T19:41:31.893Z,5.20
2019-02-16T19:44:37.346Z,5.14
2019-02-16T19:47:21.396Z,5.07
2019-02-16T19:50:15.466Z,5.17
2019-02-16T19:53:08.415Z,5.15
2019-02-16T19:55:59.069Z,5.16
2019-02-16T19:58:49.408Z,5.24
2019-02-16T20:01:26.771Z,5.23
2019-02-16T20:04:14.222Z,5.31
2019-02-16T20:07:02.733Z,5.19
2019-02-16T20:09:52.634Z,5.45
2019-02-16T20:12:45.649Z,5.58
2019-02-16T20:15:32.725Z,5.62
2019-02-16T20:18:23.100Z,5.41
2019-02-16T20:21:11.617Z,5.38
2019-02-16T20:24:00.834Z,5.64
2019-02-16T20:26:56.396Z,5.48
2019-02-16T20:29:46.450Z,5.63
2019-02-16T20:32:26.634Z,5.53
2019-02-16T20:35:18.141Z,5.39
2019-02-16T20:38:11.158Z,5.37
2019-02-16T20:40:50.545Z,5.29
2019-02-16T20:43:36.584Z,5.08
2019-02-16T20:46:21.384Z,5.04
2019-02-16T20:49:23.349Z,4.93
2019-02-16T20:52:22.620Z,4.91
2019-02-16T20:55:01.551Z,4.96
2019-02-16T20:57:47.694Z,4.93
2019-02-16T21:00:28.871Z,4.79
2019-02-16T21:03:18.931Z,4.74
2019-02-16T21:06:08.274Z,4.60
2019-02-16T21:08:58.824Z,4.61
2019-02-16T21:11:51.723Z,4.48
2019-02-16T21:14:29.453Z,4.43
2019-02-16T21:17:34.234Z,4.44
2019-02-16T21:20:33.096Z,4.48
2019-02-16T21:23:18.077Z,4.38
2019-02-16T21:26:12.452Z,4.48
2019-02-16T21:29:20.728Z,4.71
2019-02-16T21:32:25.756Z,4.65
2019-02-16T21:35:18.890Z,4.62
2019-02-16T21:38:23.807Z,4.88
2019-02-16T21:41:19.442Z,4.71
2019-02-16T21:44:05.998Z,4.63
2019-02-16T21:46:54.311Z,5.16
2019-02-16T21:49:47.455Z,4.91
2019-02-16T21:52:25.300Z,4.54
2019-02-16T21:55:08.028Z,4.37
2019-02-16T21:57:55.236Z,4.23
2019-02-16T22:00:40.513Z,4.29
2019-02-16T22:03:36.360Z,4.49
2019-02-16T22:06:17.107Z,5.18
2019-02-16T22:09:05.657Z,5.08
2019-02-16T22:11:55.512Z,4.64
2019-02-16T22:14:26.301Z,4.54
2019-02-16T22:16:57.279Z,4.29
2019-02-16T22:19:28.550Z,4.26
2019-02-16T22:21:59.429Z,4.10
2019-02-16T22:24:30.676Z,4.07
2019-02-16T22:27:01.555Z,3.90
2019-02-16T22:29:32.887Z,3.78
2019-02-16T22:32:03.784Z,3.72
2019-02-16T22:34:34.550Z,3.61
2019-02-16T22:37:05.588Z,3.57
2019-02-16T22:39:36.681Z,3.47
2019-02-16T22:42:07.788Z,3.44
2019-02-16T22:44:38.631Z,3.39
2019-02-16T22:47:09.441Z,3.52
2019-02-16T22:49:40.462Z,3.48
2019-02-16T22:52:11.566Z,3.46
2019-02-16T22:54:42.618Z,3.56
2019-02-16T22:57:13.501Z,3.73
2019-02-16T22:59:44.863Z,3.71
2019-02-16T23:02:15.865Z,3.60
2019-02-16T23:04:47.012Z,3.48
2019-02-16T23:07:17.840Z,3.40
2019-02-16T23:09:49.111Z,3.30
2019-02-16T23:12:19.934Z,3.26
2019-02-16T23:14:50.973Z,3.36
2019-02-16T23:17:22.175Z,3.35
2019-02-16T23:19:52.989Z,3.42
2019-02-16T23:22:23.906Z,3.42
2019-02-16T23:24:55.001Z,3.49
2019-02-16T23:27:26.391Z,3.47
2019-02-16T23:29:57.364Z,3.43
2019-02-16T23:32:28.525Z,3.40
2019-02-16T23:34:59.924Z,3.25
2019-02-16T23:37:31.033Z,3.17
2019-02-16T23:40:02.068Z,3.14
2019-02-16T23:42:34.292Z,3.19
2019-02-16T23:45:08.026Z,3.24
2019-02-16T23:47:38.840Z,3.42
2019-02-16T23:50:10.009Z,3.35
2019-02-16T23:52:40.809Z,3.26
2019-02-16T23:55:11.920Z,3.17
2019-02-16T23:57:43.021Z,3.08
